createdAt,value
2019-01-04T00:03:01.257Z,80.40
2019-01-04T00:05:47.708Z,80.31
2019-01-04T00:08:15.405Z,80.01
2019-01-04T00:10:43.025Z,80.01
2019-01-04T00:13:29.531Z,80.30
2019-01-04T00:15:57.240Z,79.84
2019-01-04T00:21:11.245Z,80.52
2019-01-04T00:23:59.947Z,80.52
2019-01-04T00:26:27.655Z,80.36
2019-01-04T00:28:55.273Z,80.40
2019-01-04T00:31:41.799Z,80.43
2019-01-04T00:34:28.263Z,80.85
2019-01-04T00:36:55.963Z,80.67
2019-01-04T00:39:42.455Z,80.67
2019-01-04T00:42:10.106Z,80.52
2019-01-04T00:44:40.265Z,80.50
2019-01-04T00:47:26.751Z,80.49
2019-01-04T00:49:54.458Z,80.36
2019-01-04T00:52:22.173Z,80.54
2019-01-04T00:55:08.602Z,80.69
2019-01-04T00:57:36.690Z,80.69
2019-01-04T01:02:42.420Z,80.50
2019-01-04T01:05:10.139Z,80.52
2019-01-04T01:07:56.602Z,80.55
2019-01-04T01:10:24.505Z,80.57
2019-01-04T01:12:52.123Z,80.24
2019-01-04T01:15:38.621Z,81.01
2019-01-04T01:18:06.307Z,81.07
2019-01-04T01:20:53.045Z,80.69
2019-01-04T01:23:20.762Z,80.25
2019-01-04T01:26:07.293Z,80.38
2019-01-04T01:31:23.335Z,80.41
2019-01-04T01:34:09.794Z,80.41
2019-01-04T01:36:56.307Z,80.50
2019-01-04T01:42:15.548Z,80.34
2019-01-04T01:45:02.263Z,80.94
2019-01-04T01:47:32.212Z,80.94
2019-01-04T01:50:18.991Z,81.27
2019-01-04T01:52:46.680Z,81.27
2019-01-04T01:55:14.360Z,80.91
2019-01-04T01:57:42.050Z,80.64
2019-01-04T02:00:28.562Z,80.62
2019-01-04T02:02:56.242Z,80.62
2019-01-04T02:05:23.883Z,80.73
2019-01-04T02:08:10.310Z,80.73
2019-01-04T02:10:56.835Z,80.67
2019-01-04T02:13:45.855Z,81.20
2019-01-04T02:16:13.554Z,81.20
2019-01-04T02:19:00.338Z,80.52
2019-01-04T02:21:27.986Z,80.52
2019-01-04T02:23:55.663Z,80.85
2019-01-04T02:26:23.359Z,81.27
2019-01-04T02:29:09.827Z,81.27
2019-01-04T02:31:37.526Z,80.95
2019-01-04T02:34:24.236Z,81.10
2019-01-04T02:37:11.075Z,80.46
2019-01-04T02:39:38.691Z,80.46
2019-01-04T02:42:25.217Z,80.49
2019-01-04T02:44:52.850Z,80.49
2019-01-04T02:47:20.534Z,80.93
2019-01-04T02:50:07.022Z,81.32
2019-01-04T02:52:53.659Z,80.68
2019-01-04T02:55:21.298Z,80.68
2019-01-04T02:58:07.830Z,80.98
2019-01-04T03:00:35.571Z,81.18
2019-01-04T03:03:03.319Z,80.92
2019-01-04T03:05:49.788Z,81.41
2019-01-04T03:08:36.303Z,80.95
2019-01-04T03:11:03.959Z,80.95
2019-01-04T03:13:50.500Z,81.02
2019-01-04T03:16:36.998Z,80.76
2019-01-04T03:19:04.755Z,80.76
2019-01-04T03:21:51.197Z,80.82
2019-01-04T03:24:18.918Z,80.64
2019-01-04T03:26:46.573Z,80.64
2019-01-04T03:29:33.082Z,81.35
2019-01-04T03:32:19.585Z,80.64
2019-01-04T03:35:06.284Z,80.68
2019-01-04T03:37:33.988Z,80.68
2019-01-04T03:40:02.046Z,81.00
2019-01-04T03:42:48.858Z,81.51
2019-01-04T03:45:16.504Z,81.37
2019-01-04T03:48:03.291Z,81.62
2019-01-04T03:50:31.004Z,81.62
2019-01-04T03:52:58.658Z,81.41
2019-01-04T03:58:19.252Z,81.46
2019-01-04T04:00:47.262Z,81.00
2019-01-04T04:03:33.762Z,81.52
2019-01-04T04:06:20.204Z,81.56
2019-01-04T04:09:06.743Z,81.56
2019-01-04T04:11:34.775Z,80.86
2019-01-04T04:14:02.579Z,81.40
2019-01-04T04:16:49.011Z,81.24
2019-01-04T04:19:35.509Z,80.88
2019-01-04T04:22:03.632Z,81.42
2019-01-04T04:24:50.069Z,81.42
2019-01-04T04:27:17.781Z,81.27
2019-01-04T04:29:45.489Z,81.27
2019-01-04T04:32:31.925Z,81.04
2019-01-04T04:35:18.459Z,80.60
2019-01-04T04:37:46.078Z,80.83
2019-01-04T04:40:32.569Z,80.70
2019-01-04T04:43:19.067Z,81.35
2019-01-04T04:45:46.692Z,81.35
2019-01-04T04:48:33.220Z,81.07
2019-01-04T04:51:00.860Z,81.08
2019-01-04T04:53:47.349Z,81.06
2019-01-04T04:56:33.798Z,80.65
2019-01-04T04:59:01.504Z,80.65
2019-01-04T05:01:29.481Z,80.79
2019-01-04T05:04:09.084Z,81.18
2019-01-04T05:06:26.481Z,81.18
2019-01-04T05:08:54.133Z,80.98
2019-01-04T05:11:40.652Z,80.98
2019-01-04T05:14:27.147Z,80.58
2019-01-04T05:16:56.561Z,80.58
2019-01-04T05:19:43.041Z,80.97
2019-01-04T05:22:10.739Z,80.51
2019-01-04T05:24:38.357Z,81.32
2019-01-04T05:27:24.858Z,81.29
2019-01-04T05:29:52.548Z,81.29
2019-01-04T05:32:39.061Z,80.63
2019-01-04T05:35:06.736Z,80.63
2019-01-04T05:37:34.408Z,80.65
2019-01-04T05:40:20.843Z,80.65
2019-01-04T05:42:48.571Z,81.25
2019-01-04T05:45:16.232Z,81.25
2019-01-04T05:48:03.147Z,80.84
2019-01-04T05:50:30.854Z,80.84
2019-01-04T05:53:17.360Z,80.66
2019-01-04T05:56:03.804Z,81.20
2019-01-04T05:58:31.811Z,81.31
2019-01-04T06:01:00.040Z,80.71
2019-01-04T06:03:28.201Z,80.71
2019-01-04T06:06:15.862Z,81.04
2019-01-04T06:08:43.556Z,80.82
2019-01-04T06:11:11.562Z,80.96
2019-01-04T06:13:39.272Z,80.75
2019-01-04T06:16:06.886Z,80.71
2019-01-04T06:18:53.390Z,81.46
2019-01-04T06:24:12.674Z,80.86
2019-01-04T06:26:40.752Z,80.94
2019-01-04T06:29:08.467Z,80.79
2019-01-04T06:31:54.911Z,80.79
2019-01-04T06:34:22.610Z,81.32
2019-01-04T06:36:50.277Z,81.34
2019-01-04T06:39:36.817Z,80.65
2019-01-04T06:42:04.480Z,80.71
2019-01-04T06:44:32.262Z,81.28
2019-01-04T06:47:19.018Z,81.55
2019-01-04T06:49:46.644Z,80.79
2019-01-04T06:52:14.292Z,80.79
2019-01-04T06:55:00.802Z,81.10
2019-01-04T06:57:47.260Z,80.64
2019-01-04T07:00:46.250Z,80.64
2019-01-04T07:05:51.706Z,81.05
2019-01-04T07:08:19.335Z,81.05
2019-01-04T07:10:47.101Z,81.09
2019-01-04T07:13:34.059Z,81.09
2019-01-04T07:16:01.674Z,80.77
2019-01-04T07:18:48.203Z,80.77
2019-01-04T07:21:15.896Z,80.98
2019-01-04T07:24:02.444Z,81.02
2019-01-04T07:27:01.230Z,80.86
2019-01-04T07:29:18.510Z,80.86
2019-01-04T07:32:05.043Z,81.40
2019-01-04T07:34:51.476Z,81.12
2019-01-04T07:37:39.019Z,81.00
2019-01-04T07:40:25.482Z,80.68
2019-01-04T07:42:53.195Z,80.68
2019-01-04T07:45:21.119Z,80.85
2019-01-04T07:47:48.803Z,80.49
2019-01-04T07:50:16.529Z,80.49
2019-01-04T07:53:02.977Z,80.77
2019-01-04T07:55:30.752Z,80.75
2019-01-04T07:57:58.502Z,80.76
2019-01-04T08:00:44.940Z,80.45
2019-01-04T08:03:12.682Z,81.12
2019-01-04T08:05:40.716Z,81.12
2019-01-04T08:08:27.252Z,80.77
2019-01-04T08:10:54.943Z,80.72
2019-01-04T08:13:22.573Z,81.50
2019-01-04T08:16:09.071Z,81.50
2019-01-04T08:18:36.802Z,81.11
2019-01-04T08:21:07.567Z,81.56
2019-01-04T08:23:54.049Z,81.32
2019-01-04T08:26:23.080Z,81.09
2019-01-04T08:28:50.768Z,81.09
2019-01-04T08:31:18.405Z,80.95
2019-01-04T08:34:04.897Z,80.95
2019-01-04T08:36:32.589Z,81.86
2019-01-04T08:39:19.103Z,81.71
2019-01-04T08:41:46.693Z,81.69
2019-01-04T08:44:14.394Z,81.84
2019-01-04T08:49:47.315Z,81.67
2019-01-04T08:52:33.783Z,81.63
2019-01-04T08:55:03.135Z,81.63
2019-01-04T08:57:49.641Z,81.39
2019-01-04T09:03:08.342Z,81.37
2019-01-04T09:05:35.950Z,81.71
2019-01-04T09:08:06.136Z,81.37
2019-01-04T09:10:52.675Z,81.12
2019-01-04T09:13:20.362Z,81.43
2019-01-04T09:16:00.354Z,81.43
2019-01-04T09:18:17.689Z,81.34
2019-01-04T09:20:45.384Z,81.34
2019-01-04T09:23:13.058Z,81.54
2019-01-04T09:25:43.855Z,81.49
2019-01-04T09:28:17.995Z,81.80
2019-01-04T09:30:42.754Z,81.72
2019-01-04T09:33:29.254Z,81.23
2019-01-04T09:35:57.012Z,81.98
2019-01-04T09:38:45.062Z,81.49
2019-01-04T09:41:12.775Z,81.49
2019-01-04T09:43:42.630Z,81.53
2019-01-04T09:46:29.122Z,81.52
2019-01-04T09:48:56.742Z,81.10
2019-01-04T09:51:43.237Z,81.10
2019-01-04T09:54:10.886Z,81.57
2019-01-04T09:56:38.631Z,81.53
2019-01-04T09:59:25.141Z,81.60
2019-01-04T10:01:55.098Z,81.60
2019-01-04T10:04:22.793Z,81.53
2019-01-04T10:07:09.303Z,81.53
2019-01-04T10:09:37.002Z,81.18
2019-01-04T10:12:23.460Z,81.05
2019-01-04T10:15:09.979Z,81.02
2019-01-04T10:17:37.931Z,80.95
2019-01-04T10:20:08.095Z,80.86
2019-01-04T10:22:35.813Z,80.54
2019-01-04T10:25:22.263Z,80.54
2019-01-04T10:28:04.456Z,80.68
2019-01-04T10:30:21.920Z,80.68
2019-01-04T10:33:06.700Z,81.08
2019-01-04T10:35:40.033Z,81.08
2019-01-04T10:38:07.717Z,80.84
2019-01-04T10:40:35.423Z,80.87
2019-01-04T10:46:08.700Z,81.10
2019-01-04T10:48:55.187Z,80.28
2019-01-04T10:51:35.174Z,80.25
2019-01-04T10:54:24.579Z,80.25
2019-01-04T10:57:00.172Z,80.54
2019-01-04T10:59:46.655Z,80.53
2019-01-04T11:02:14.292Z,80.64
2019-01-04T11:05:00.809Z,80.94
2019-01-04T11:07:28.437Z,80.94
2019-01-04T11:12:31.083Z,80.32
2019-01-04T11:14:58.755Z,80.11
2019-01-04T11:17:29.828Z,80.62
2019-01-04T11:20:16.369Z,80.62
2019-01-04T11:23:02.818Z,80.60
2019-01-04T11:25:30.765Z,80.60
2019-01-04T11:27:59.504Z,80.66
2019-01-04T11:30:46.220Z,80.70
2019-01-04T11:33:13.958Z,81.15
2019-01-04T11:35:41.590Z,81.15
2019-01-04T11:41:02.318Z,81.00
2019-01-04T11:43:31.356Z,80.59
2019-01-04T11:48:45.661Z,80.90
2019-01-04T11:51:13.353Z,80.65
2019-01-04T11:56:34.712Z,80.65
2019-01-04T11:59:02.456Z,80.33
2019-01-04T12:02:01.267Z,80.33
2019-01-04T12:12:27.600Z,80.67
2019-01-04T12:17:31.971Z,80.54
2019-01-04T12:20:18.457Z,80.54
2019-01-04T12:22:46.139Z,80.75
2019-01-04T12:25:32.667Z,80.75
2019-01-04T12:28:00.274Z,80.85
2019-01-04T12:30:46.804Z,81.24
2019-01-04T12:33:14.771Z,81.24
2019-01-04T12:36:01.281Z,81.63
2019-01-04T12:38:29.014Z,81.63
2019-01-04T12:40:56.803Z,81.62
2019-01-04T12:43:47.807Z,81.62
2019-01-04T12:46:14.428Z,81.74
2019-01-04T12:49:03.561Z,82.07
2019-01-04T12:51:31.596Z,81.58
2019-01-04T12:53:59.280Z,81.58
2019-01-04T12:56:45.753Z,81.72
2019-01-04T13:02:06.722Z,81.92
2019-01-04T13:04:34.455Z,81.35
2019-01-04T13:07:02.336Z,81.35
2019-01-04T13:09:29.975Z,81.71
2019-01-04T13:11:59.314Z,81.71
2019-01-04T13:14:27.351Z,81.49
2019-01-04T13:19:27.452Z,82.10
2019-01-04T13:25:00.389Z,81.67
2019-01-04T13:27:29.321Z,81.66
2019-01-04T13:30:09.137Z,81.66
2019-01-04T13:32:26.395Z,81.93
2019-01-04T13:35:12.908Z,81.96
2019-01-04T13:37:40.633Z,81.79
2019-01-04T13:40:08.705Z,81.72
2019-01-04T13:42:36.384Z,82.37
2019-01-04T13:47:45.450Z,82.19
2019-01-04T13:50:16.190Z,82.25
2019-01-04T13:55:49.048Z,82.40
2019-01-04T13:58:16.723Z,82.40
2019-01-04T14:00:57.029Z,82.50
2019-01-04T14:03:35.220Z,82.50
2019-01-04T14:06:21.754Z,82.00
2019-01-04T14:08:49.386Z,82.00
2019-01-04T14:11:17.335Z,81.98
2019-01-04T14:13:45.001Z,81.98
2019-01-04T14:16:12.746Z,82.19
2019-01-04T14:18:40.955Z,82.38
2019-01-04T14:21:11.021Z,82.38
2019-01-04T14:23:38.688Z,82.12
2019-01-04T14:26:25.172Z,82.31
2019-01-04T14:28:52.828Z,82.31
2019-01-04T14:31:20.840Z,82.18
2019-01-04T14:33:48.569Z,82.70
2019-01-04T14:36:18.897Z,82.25
2019-01-04T14:39:05.414Z,82.70
2019-01-04T14:44:28.275Z,82.30
2019-01-04T14:49:42.536Z,82.62
2019-01-04T14:52:10.232Z,82.69
2019-01-04T14:54:39.945Z,82.78
2019-01-04T14:57:28.955Z,82.83
2019-01-04T14:59:56.659Z,83.02
2019-01-04T15:02:24.781Z,82.81
2019-01-04T15:04:52.481Z,82.81
2019-01-04T15:07:20.135Z,82.79
2019-01-04T15:09:48.239Z,82.73
2019-01-04T15:12:34.755Z,82.95
2019-01-04T15:15:21.243Z,83.22
2019-01-04T15:17:48.947Z,83.22
2019-01-04T15:20:35.499Z,83.03
2019-01-04T15:23:22.026Z,83.22
2019-01-04T15:26:08.503Z,83.54
2019-01-04T15:28:36.257Z,83.54
2019-01-04T15:31:22.696Z,83.34
2019-01-04T15:33:50.449Z,83.34
2019-01-04T15:36:37.186Z,83.43
2019-01-04T15:39:05.234Z,83.49
2019-01-04T15:41:33.396Z,83.50
2019-01-04T15:44:01.519Z,83.41
2019-01-04T15:46:41.258Z,83.41
2019-01-04T15:48:58.513Z,83.80
2019-01-04T15:51:48.542Z,83.28
2019-01-04T15:54:30.087Z,83.68
2019-01-04T15:56:45.713Z,83.68
2019-01-04T15:59:13.449Z,83.57
2019-01-04T16:04:31.119Z,83.62
2019-01-04T16:07:01.323Z,83.60
2019-01-04T16:12:04.221Z,83.27
2019-01-04T16:14:31.872Z,83.39
2019-01-04T16:16:59.554Z,83.89
2019-01-04T16:19:46.102Z,83.32
2019-01-04T16:22:13.810Z,83.32
2019-01-04T16:25:00.343Z,83.58
2019-01-04T16:30:14.655Z,83.84
2019-01-04T16:33:04.009Z,83.84
2019-01-04T16:35:50.532Z,83.72
2019-01-04T16:38:18.196Z,83.72
2019-01-04T16:41:05.168Z,83.63
2019-01-04T16:43:32.845Z,84.13
2019-01-04T16:46:19.383Z,83.44
2019-01-04T16:48:47.052Z,83.33
2019-01-04T16:51:33.567Z,84.10
2019-01-04T16:54:01.210Z,84.10
2019-01-04T16:56:28.903Z,84.11
2019-01-04T16:59:15.382Z,84.11
2019-01-04T17:01:43.193Z,83.73
2019-01-04T17:04:11.001Z,83.30
2019-01-04T17:06:57.495Z,83.30
2019-01-04T17:09:44.046Z,83.71
2019-01-04T17:12:30.552Z,83.31
2019-01-04T17:14:58.234Z,84.18
2019-01-04T17:17:44.679Z,83.86
2019-01-04T17:20:12.465Z,83.86
2019-01-04T17:22:40.200Z,83.52
2019-01-04T17:25:08.935Z,83.52
2019-01-04T17:27:36.693Z,83.79
2019-01-04T17:30:23.600Z,83.33
2019-01-04T17:32:51.353Z,83.33
2019-01-04T17:35:19.025Z,83.79
2019-01-04T17:38:05.495Z,84.03
2019-01-04T17:40:33.325Z,84.03
2019-01-04T17:43:01.345Z,84.13
2019-01-04T17:45:47.878Z,84.19
2019-01-04T17:48:15.595Z,84.04
2019-01-04T17:50:43.308Z,84.04
2019-01-04T17:53:11.713Z,83.34
2019-01-04T17:55:39.367Z,83.37
2019-01-04T18:00:40.545Z,83.50
2019-01-04T18:03:08.176Z,83.48
2019-01-04T18:05:35.899Z,83.65
2019-01-04T18:08:22.360Z,83.54
2019-01-04T18:10:50.060Z,84.07
2019-01-04T18:13:17.892Z,84.07
2019-01-04T18:15:47.610Z,83.88
2019-01-04T18:18:15.344Z,83.46
2019-01-04T18:21:01.886Z,83.85
2019-01-04T18:23:29.831Z,83.46
2019-01-04T18:25:57.932Z,83.46
2019-01-04T18:31:14.968Z,83.85
2019-01-04T18:33:45.118Z,83.83
2019-01-04T18:36:12.872Z,84.02
2019-01-04T18:38:40.658Z,84.03
2019-01-04T18:41:11.726Z,84.23
2019-01-04T18:43:39.465Z,84.21
2019-01-04T18:46:09.195Z,84.21
2019-01-04T18:48:37.239Z,83.96
2019-01-04T18:51:04.952Z,84.12
2019-01-04T18:53:32.681Z,84.12
2019-01-04T18:56:00.752Z,83.81
2019-01-04T18:58:28.534Z,84.27
2019-01-04T19:00:56.216Z,83.90
2019-01-04T19:03:24.183Z,83.90
2019-01-04T19:05:51.892Z,83.99
2019-01-04T19:08:19.707Z,84.11
2019-01-04T19:10:47.782Z,83.88
2019-01-04T19:13:15.567Z,83.62
2019-01-04T19:15:46.063Z,83.62
2019-01-04T19:18:15.214Z,84.04
2019-01-04T19:20:48.131Z,84.04
2019-01-04T19:23:18.499Z,84.18
2019-01-04T19:25:46.615Z,84.18
2019-01-04T19:28:14.356Z,84.35
2019-01-04T19:30:42.098Z,83.67
2019-01-04T19:33:10.215Z,83.67
2019-01-04T19:35:37.907Z,84.14
2019-01-04T19:38:05.562Z,84.14
2019-01-04T19:40:33.791Z,84.29
2019-01-04T19:43:01.450Z,84.42
2019-01-04T19:45:30.102Z,84.57
2019-01-04T19:48:02.551Z,83.81
2019-01-04T19:50:30.277Z,84.31
2019-01-04T19:52:57.913Z,84.31
2019-01-04T19:55:26.020Z,84.24
2019-01-04T19:57:53.710Z,84.43
2019-01-04T20:00:22.646Z,83.86
2019-01-04T20:02:57.951Z,83.86
2019-01-04T20:05:32.052Z,84.41
2019-01-04T20:08:20.179Z,83.89
2019-01-04T20:11:15.754Z,83.89
2019-01-04T20:13:52.153Z,84.28
2019-01-04T20:16:42.303Z,84.17
2019-01-04T20:19:30.481Z,84.61
2019-01-04T20:22:19.850Z,84.64
2019-01-04T20:25:11.466Z,84.08
2019-01-04T20:27:59.439Z,84.08
2019-01-04T20:30:40.844Z,84.47
2019-01-04T20:33:33.182Z,84.53
2019-01-04T20:36:20.203Z,84.39
2019-01-04T20:39:05.226Z,84.21
2019-01-04T20:42:07.068Z,84.21
2019-01-04T20:44:51.940Z,84.65
2019-01-04T20:47:41.726Z,84.66
2019-01-04T20:50:31.004Z,84.66
2019-01-04T20:53:30.107Z,84.19
2019-01-04T20:56:22.870Z,84.93
2019-01-04T20:59:09.395Z,84.26
2019-01-04T21:01:55.972Z,84.16
2019-01-04T21:04:42.682Z,84.16
2019-01-04T21:07:29.191Z,84.40
2019-01-04T21:10:15.686Z,84.40
2019-01-04T21:13:02.201Z,84.62
2019-01-04T21:15:48.752Z,84.91
2019-01-04T21:18:35.258Z,84.91
2019-01-04T21:21:21.803Z,84.61
2019-01-04T21:24:08.319Z,84.56
2019-01-04T21:26:55.206Z,84.84
2019-01-04T21:29:41.651Z,84.84
2019-01-04T21:32:28.164Z,84.61
2019-01-04T21:35:14.640Z,84.62
2019-01-04T21:38:01.157Z,84.60
2019-01-04T21:40:49.831Z,84.58
2019-01-04T21:43:48.585Z,84.87
2019-01-04T21:46:24.461Z,84.87
2019-01-04T21:49:10.962Z,84.93
2019-01-04T21:51:57.442Z,85.03
2019-01-04T21:54:44.547Z,85.03
2019-01-04T21:57:34.113Z,84.68
2019-01-04T22:00:20.683Z,85.23
2019-01-04T22:03:07.150Z,85.23
2019-01-04T22:05:53.740Z,84.97
2019-01-04T22:08:40.656Z,84.97
2019-01-04T22:11:29.270Z,85.08
2019-01-04T22:14:15.784Z,85.08
2019-01-04T22:17:02.245Z,84.88
2019-01-04T22:19:48.784Z,84.90
2019-01-04T22:22:54.656Z,84.88
2019-01-04T22:25:31.037Z,84.88
2019-01-04T22:28:17.540Z,84.86
2019-01-04T22:34:06.411Z,84.84
2019-01-04T22:37:07.145Z,84.50
2019-01-04T22:39:41.277Z,84.50
2019-01-04T22:42:27.777Z,84.67
2019-01-04T22:45:14.322Z,84.67
2019-01-04T22:48:00.865Z,84.51
2019-01-04T22:50:47.358Z,84.51
2019-01-04T22:53:33.794Z,84.83
2019-01-04T22:56:32.588Z,84.69
2019-01-04T22:59:11.441Z,84.69
2019-01-04T23:01:58.941Z,84.63
2019-01-04T23:04:45.437Z,84.63
2019-01-04T23:07:44.528Z,84.70
2019-01-04T23:10:32.644Z,84.16
2019-01-04T23:13:08.205Z,84.16
2019-01-04T23:15:54.724Z,84.62
2019-01-04T23:18:41.241Z,84.61
2019-01-04T23:21:27.743Z,84.81
2019-01-04T23:24:14.530Z,84.84
2019-01-04T23:27:01.016Z,84.30
2019-01-04T23:29:47.523Z,84.32
2019-01-04T23:32:34.040Z,84.42
2019-01-04T23:35:20.556Z,84.42
2019-01-04T23:38:08.840Z,84.28
2019-01-04T23:40:55.266Z,84.19
2019-01-04T23:43:42.054Z,84.19
2019-01-04T23:46:28.967Z,84.72
2019-01-04T23:49:15.569Z,84.72
2019-01-04T23:55:07.319Z,84.53
2019-01-04T23:57:42.152Z,84.23
